Time;durP1;ratioP1;P1;durP2;ratioP2;P2;SDS_P1;SDS_P2;PMS_P1;PMS_P2;Temp;Humidity;BMP_temperature;BMP_pressure;BME280_temperature;BME280_humidity;BME280_pressure;Samples;Min_cycle;Max_cycle;Signal;HPM_P1;HPM_P2
2023/12/13 00:02:08;;;;;;;;;;;;;;;6.12;37.53;100704.66;5072929;28;20138;-68
2023/12/13 00:04:33;;;;;;;;;;;;;;;6.09;37.78;100705.81;5073805;28;19923;-68
2023/12/13 00:06:58;;;;;;;;;;;;;;;6.09;39.26;100718.28;5077061;28;20003;-68
2023/12/13 00:09:24;;;;;;;;;;;;;;;6.10;39.18;100714.66;5073846;28;20265;-69
2023/12/13 00:11:49;;;;;;;;;;;;;;;6.05;38.44;100716.94;5075254;28;19920;-68
2023/12/13 00:14:15;;;;;;;;;;;;;;;6.08;38.70;100719.31;5072208;28;19912;-60
2023/12/13 00:16:40;;;;;;;;;;;;;;;6.08;37.39;100719.31;5073904;28;19958;-59
2023/12/13 00:19:06;;;;;;;;;;;;;;;6.08;38.28;100722.78;5074165;28;19916;-60
2023/12/13 00:21:31;;;;;;;;;;;;;;;6.10;39.43;100719.97;5074390;28;19966;-59
2023/12/13 00:23:57;;;;;;;;;;;;;;;6.13;38.59;100725.84;5074452;28;19957;-59
2023/12/13 00:26:23;;;;;;;;;;;;;;;6.15;37.94;100721.16;5055973;28;19931;-59
2023/12/13 00:28:49;;;;;;;;;;;;;;;6.15;37.65;100718.50;5073763;28;19916;-61
2023/12/13 00:31:14;;;;;;;;;;;;;;;6.15;38.05;100718.50;5073839;28;19913;-61
2023/12/13 00:33:40;;;;;;;;;;;;;;;6.14;38.56;100719.50;5074641;28;19912;-59
2023/12/13 00:36:06;;;;;;;;;;;;;;;6.13;38.06;100711.63;5074804;28;19962;-61
2023/12/13 00:38:31;;;;;;;;;;;;;;;6.12;38.04;100717.97;5074576;28;19939;-60
2023/12/13 00:40:57;;;;;;;;;;;;;;;6.10;37.96;100725.31;5074636;28;20314;-60
2023/12/13 00:43:24;;;;;;;;;;;;;;;6.11;38.46;100716.31;5074486;28;20003;-61
2023/12/13 00:45:49;;;;;;;;;;;;;;;6.10;38.58;100715.47;5074558;28;19966;-61
2023/12/13 00:48:15;;;;;;;;;;;;;;;6.13;38.10;100712.50;5074595;28;19962;-61
2023/12/13 00:50:41;;;;;;;;;;;;;;;6.11;37.36;100717.16;5079646;28;19912;-60
2023/12/13 00:53:06;;;;;;;;;;;;;;;6.11;37.57;100716.31;5094861;28;19916;-61
2023/12/13 00:55:31;;;;;;;;;;;;;;;6.12;38.36;100707.31;5079541;28;20008;-61
2023/12/13 00:57:57;;;;;;;;;;;;;;;6.11;38.22;100714.50;5074357;28;19916;-60
2023/12/13 01:00:22;;;;;;;;;;;;;;;6.09;38.01;100721.81;5074374;28;20378;-61
2023/12/13 01:02:48;;;;;;;;;;;;;;;6.08;38.96;100712.13;5061667;28;19917;-61
2023/12/13 01:05:13;;;;;;;;;;;;;;;6.09;38.37;100710.28;5054787;28;19913;-60
2023/12/13 01:07:39;;;;;;;;;;;;;;;6.10;38.75;100707.47;5054411;28;20301;-61
2023/12/13 01:10:04;;;;;;;;;;;;;;;6.08;37.30;100706.78;5054171;28;19913;-60
2023/12/13 01:12:29;;;;;;;;;;;;;;;6.06;38.18;100714.13;5054006;28;19978;-60
2023/12/13 01:14:55;;;;;;;;;;;;;;;6.07;39.20;100721.09;5058641;28;19920;-60
2023/12/13 01:17:20;;;;;;;;;;;;;;;6.13;39.26;100715.16;5074582;28;19973;-60
2023/12/13 01:19:46;;;;;;;;;;;;;;;6.10;38.63;100712.81;5087414;28;20242;-61
2023/12/13 01:22:11;;;;;;;;;;;;;;;6.08;38.28;100711.31;5094717;28;19975;-60
2023/12/13 01:24:37;;;;;;;;;;;;;;;6.06;38.25;100721.28;5093118;28;19911;-60
2023/12/13 01:27:03;;;;;;;;;;;;;;;6.04;38.50;100717.94;5054161;28;20012;-61
2023/12/13 01:29:29;;;;;;;;;;;;;;;6.03;38.40;100706.44;5070822;28;19912;-62
2023/12/13 01:31:54;;;;;;;;;;;;;;;5.99;38.00;100708.56;5074273;28;19916;-61
2023/12/13 01:34:20;;;;;;;;;;;;;;;6.01;37.95;100716.41;5074137;28;19935;-61
2023/12/13 01:36:45;;;;;;;;;;;;;;;6.00;39.40;100715.59;5074219;28;19912;-61
2023/12/13 01:39:12;;;;;;;;;;;;;;;6.01;38.73;100711.09;5074252;28;19916;-61
2023/12/13 01:41:37;;;;;;;;;;;;;;;6.00;38.46;100715.59;5074206;28;20234;-61
2023/12/13 01:44:02;;;;;;;;;;;;;;;6.00;39.14;100712.09;5074260;28;19920;-60
2023/12/13 01:46:30;;;;;;;;;;;;;;;6.01;37.89;100709.25;5073985;28;20391;-61
2023/12/13 01:48:56;;;;;;;;;;;;;;;5.98;38.35;100708.72;5073581;28;20015;-61
2023/12/13 01:51:21;;;;;;;;;;;;;;;5.93;38.70;100706.50;5074059;28;19947;-60
2023/12/13 01:53:47;;;;;;;;;;;;;;;5.97;39.41;100697.22;5072954;28;19916;-61
2023/12/13 01:56:12;;;;;;;;;;;;;;;6.01;40.32;100709.25;5082048;28;19916;-61
2023/12/13 01:58:38;;;;;;;;;;;;;;;6.01;39.17;100705.75;5093558;28;19916;-62
2023/12/13 02:01:04;;;;;;;;;;;;;;;6.04;38.42;100699.28;5093638;28;20361;-61
2023/12/13 02:03:30;;;;;;;;;;;;;;;5.98;38.13;100701.59;5074233;28;19966;-63
2023/12/13 02:05:56;;;;;;;;;;;;;;;5.92;36.96;100704.81;5073483;28;19916;-62
2023/12/13 02:08:22;;;;;;;;;;;;;;;5.91;38.14;100705.00;5074695;28;20251;-62
2023/12/13 02:10:48;;;;;;;;;;;;;;;5.88;39.04;100706.16;5093534;28;19919;-61
2023/12/13 02:13:14;;;;;;;;;;;;;;;5.90;38.82;100706.00;5093181;28;19920;-61
2023/12/13 02:15:39;;;;;;;;;;;;;;;5.90;37.76;100704.16;5082601;28;19923;-61
2023/12/13 02:18:06;;;;;;;;;;;;;;;5.91;38.16;100707.69;5073173;28;19919;-60
2023/12/13 02:20:31;;;;;;;;;;;;;;;5.94;38.88;100707.34;5073121;28;19919;-60
2023/12/13 02:22:57;;;;;;;;;;;;;;;5.91;38.82;100710.34;5073141;28;19912;-62
2023/12/13 02:25:29;;;;;;;;;;;;;;;5.89;39.42;100713.16;5071766;28;20007;-61
2023/12/13 02:27:54;;;;;;;;;;;;;;;5.87;38.52;100709.81;5071945;28;19919;-62
2023/12/13 02:30:22;;;;;;;;;;;;;;;5.84;39.20;100710.13;5072934;28;19913;-62
2023/12/13 02:32:48;;;;;;;;;;;;;;;5.84;38.04;100703.97;5073172;28;19912;-62
2023/12/13 02:35:13;;;;;;;;;;;;;;;5.84;38.88;100709.28;5073095;28;19912;-62
2023/12/13 02:37:38;;;;;;;;;;;;;;;5.86;38.23;100708.13;5073109;28;19916;-62
2023/12/13 02:40:06;;;;;;;;;;;;;;;5.85;37.99;100709.16;5071942;28;19927;-61
2023/12/13 02:42:31;;;;;;;;;;;;;;;5.84;38.75;100712.78;5072995;28;20015;-62
2023/12/13 02:44:56;;;;;;;;;;;;;;;5.89;39.81;100709.63;5072959;28;20377;-61
2023/12/13 02:47:25;;;;;;;;;;;;;;;5.91;39.52;100711.16;5073325;28;19974;-60
2023/12/13 02:49:50;;;;;;;;;;;;;;;5.86;38.57;100708.13;5072980;28;20258;-61
2023/12/13 02:52:15;;;;;;;;;;;;;;;5.87;38.66;100715.16;5083323;28;19918;-62
2023/12/13 02:54:41;;;;;;;;;;;;;;;5.89;39.89;100717.63;5072691;28;20265;-62
2023/12/13 02:57:06;;;;;;;;;;;;;;;5.82;38.51;100710.28;5084539;28;19981;-61
2023/12/13 02:59:31;;;;;;;;;;;;;;;5.86;38.77;100713.47;5092931;28;19998;-62
2023/12/13 03:01:57;;;;;;;;;;;;;;;5.84;39.39;100714.63;5086884;28;20358;-62
2023/12/13 03:04:22;;;;;;;;;;;;;;;5.86;39.74;100717.97;5072986;28;20020;-62
2023/12/13 03:06:48;;;;;;;;;;;;;;;5.81;37.53;100711.28;5072747;28;19955;-62
2023/12/13 03:09:13;;;;;;;;;;;;;;;5.84;39.84;100712.78;5073320;28;19913;-61
2023/12/13 03:11:39;;;;;;;;;;;;;;;5.78;39.09;100711.59;5072966;28;19920;-61
2023/12/13 03:14:04;;;;;;;;;;;;;;;5.80;37.56;100719.44;5072836;28;20050;-62
2023/12/13 03:16:30;;;;;;;;;;;;;;;5.78;37.82;100722.25;5072586;28;19995;-62
2023/12/13 03:18:55;;;;;;;;;;;;;;;5.78;37.79;100718.75;5072390;28;20013;-60
2023/12/13 03:21:21;;;;;;;;;;;;;;;5.79;37.08;100717.75;5072679;28;19913;-62
2023/12/13 03:23:48;;;;;;;;;;;;;;;5.82;38.37;100722.78;5074019;28;19912;-61
2023/12/13 03:26:14;;;;;;;;;;;;;;;5.84;38.92;100720.78;5075223;28;19920;-60
2023/12/13 03:28:39;;;;;;;;;;;;;;;5.83;39.20;100724.44;5076629;28;20479;-62
2023/12/13 03:31:08;;;;;;;;;;;;;;;5.82;37.41;100723.59;5076050;28;19920;-62
2023/12/13 03:33:34;;;;;;;;;;;;;;;5.79;36.40;100729.25;5076345;28;20349;-62
2023/12/13 03:35:59;;;;;;;;;;;;;;;5.79;37.03;100725.75;5076315;28;19959;-61
2023/12/13 03:38:24;;;;;;;;;;;;;;;5.79;37.42;100723.94;5076337;28;20292;-62
2023/12/13 03:40:50;;;;;;;;;;;;;;;5.79;37.19;100726.59;5074894;28;19913;-62
2023/12/13 03:43:15;;;;;;;;;;;;;;;5.79;39.46;100734.59;5075963;28;20368;-62
2023/12/13 03:45:40;;;;;;;;;;;;;;;5.77;36.88;100731.22;5076061;28;20010;-62
2023/12/13 03:48:06;;;;;;;;;;;;;;;5.75;37.09;100732.38;5076266;28;19917;-62
2023/12/13 03:50:31;;;;;;;;;;;;;;;5.73;36.93;100731.69;5095683;28;20396;-62
2023/12/13 03:52:56;;;;;;;;;;;;;;;5.75;37.75;100727.03;5096276;28;20268;-61
2023/12/13 03:55:22;;;;;;;;;;;;;;;5.73;37.34;100732.53;5082275;28;20356;-61
2023/12/13 03:57:47;;;;;;;;;;;;;;;5.77;39.16;100738.38;5076187;28;20395;-62
2023/12/13 04:00:12;;;;;;;;;;;;;;;5.76;36.82;100732.22;5076225;28;20349;-63
2023/12/13 04:02:38;;;;;;;;;;;;;;;5.79;38.25;100728.41;5075776;28;19912;-62
2023/12/13 04:05:03;;;;;;;;;;;;;;;5.81;37.52;100737.94;5075931;28;19919;-63
2023/12/13 04:07:29;;;;;;;;;;;;;;;5.83;37.46;100735.09;5075621;28;19916;-61
2023/12/13 04:09:54;;;;;;;;;;;;;;;5.85;37.43;100733.13;5075785;28;20003;-61
2023/12/13 04:12:19;;;;;;;;;;;;;;;5.81;38.40;100737.94;5075464;28;19982;-61
2023/12/13 04:14:45;;;;;;;;;;;;;;;5.81;38.08;100731.75;5075288;28;20369;-63
2023/12/13 04:17:10;;;;;;;;;;;;;;;5.82;38.27;100731.59;5075365;28;20003;-62
2023/12/13 04:19:35;;;;;;;;;;;;;;;5.78;36.18;100732.06;5075461;28;19970;-61
2023/12/13 04:22:01;;;;;;;;;;;;;;;5.76;36.68;100726.06;5075617;28;19920;-61
2023/12/13 04:24:26;;;;;;;;;;;;;;;5.76;37.27;100732.22;5075437;28;20416;-62
2023/12/13 04:26:51;;;;;;;;;;;;;;;5.73;38.90;100737.03;5074294;28;20277;-62
2023/12/13 04:29:17;;;;;;;;;;;;;;;5.74;37.40;100738.69;5075291;28;20528;-61
2023/12/13 04:31:42;;;;;;;;;;;;;;;5.75;37.47;100737.72;5075213;28;19913;-61
2023/12/13 04:34:07;;;;;;;;;;;;;;;5.72;36.77;100735.34;5075057;28;19920;-60
2023/12/13 04:36:33;;;;;;;;;;;;;;;5.69;38.22;100728.50;5075178;28;20264;-60
2023/12/13 04:38:59;;;;;;;;;;;;;;;5.69;38.20;100733.84;5081687;28;19935;-64
2023/12/13 04:41:24;;;;;;;;;;;;;;;5.69;38.38;100733.84;5095843;28;20389;-62
2023/12/13 04:43:50;;;;;;;;;;;;;;;5.67;37.25;100732.31;5076171;28;19916;-61
2023/12/13 04:46:15;;;;;;;;;;;;;;;5.67;35.97;100730.50;5075201;28;19912;-61
2023/12/13 04:48:41;;;;;;;;;;;;;;;5.64;37.89;100728.13;5075194;28;20319;-62
2023/12/13 04:51:06;;;;;;;;;;;;;;;5.70;38.75;100734.66;5082847;28;19916;-62
2023/12/13 04:53:32;;;;;;;;;;;;;;;5.73;37.97;100729.88;5095305;28;19919;-62
2023/12/13 04:55:57;;;;;;;;;;;;;;;5.73;36.54;100735.19;5075561;28;20396;-62
2023/12/13 04:58:22;;;;;;;;;;;;;;;5.74;38.44;100728.88;5074728;28;20016;-62
2023/12/13 05:00:48;;;;;;;;;;;;;;;5.73;37.31;100731.69;5074778;28;19959;-62
2023/12/13 05:03:14;;;;;;;;;;;;;;;5.72;36.79;100736.19;5074366;28;19913;-61
2023/12/13 05:05:40;;;;;;;;;;;;;;;5.79;38.02;100736.41;5074676;28;19962;-64
2023/12/13 05:08:09;;;;;;;;;;;;;;;5.74;38.96;100742.22;5074508;28;19955;-62
2023/12/13 05:10:35;;;;;;;;;;;;;;;5.70;37.46;100738.19;5074486;28;19931;-60
2023/12/13 05:13:00;;;;;;;;;;;;;;;5.70;38.28;100740.00;5073734;28;20030;-61
2023/12/13 05:15:25;;;;;;;;;;;;;;;5.74;38.60;100744.00;5074584;28;19912;-60
2023/12/13 05:17:51;;;;;;;;;;;;;;;5.75;38.11;100741.19;5074374;28;19912;-61
2023/12/13 05:20:16;;;;;;;;;;;;;;;5.73;37.12;100742.34;5074418;28;19920;-60
2023/12/13 05:22:42;;;;;;;;;;;;;;;5.70;36.66;100748.84;5074449;28;19958;-62
2023/12/13 05:25:08;;;;;;;;;;;;;;;5.67;36.61;100740.31;5074387;28;20391;-60
2023/12/13 05:27:33;;;;;;;;;;;;;;;5.68;38.63;100736.66;5074032;28;19947;-61
2023/12/13 05:29:59;;;;;;;;;;;;;;;5.65;36.72;100742.31;5088989;28;20276;-61
2023/12/13 05:32:24;;;;;;;;;;;;;;;5.62;37.35;100746.94;5094072;28;19912;-60
2023/12/13 05:34:49;;;;;;;;;;;;;;;5.65;37.78;100755.63;5092657;28;20002;-62
2023/12/13 05:37:15;;;;;;;;;;;;;;;5.63;38.01;100758.44;5073982;28;20218;-60
2023/12/13 05:39:40;;;;;;;;;;;;;;;5.64;37.59;100752.09;5073691;28;20051;-60
2023/12/13 05:42:06;;;;;;;;;;;;;;;5.65;37.84;100745.81;5074236;28;19916;-61
2023/12/13 05:44:31;;;;;;;;;;;;;;;5.58;38.19;100750.91;5073837;28;19920;-61
2023/12/13 05:46:56;;;;;;;;;;;;;;;5.62;38.03;100752.25;5072990;28;20341;-61
2023/12/13 05:49:22;;;;;;;;;;;;;;;5.58;38.55;100750.91;5073623;28;20285;-61
2023/12/13 05:51:47;;;;;;;;;;;;;;;5.56;36.81;100744.06;5087683;28;19912;-62
2023/12/13 05:54:13;;;;;;;;;;;;;;;5.57;38.21;100746.56;5089287;28;19912;-62
2023/12/13 05:56:38;;;;;;;;;;;;;;;5.55;37.27;100748.56;5074107;28;19935;-62
2023/12/13 05:59:04;;;;;;;;;;;;;;;5.57;38.29;100751.03;5073658;28;19923;-62
2023/12/13 06:01:30;;;;;;;;;;;;;;;5.57;38.51;100746.56;5073429;28;19916;-62
2023/12/13 06:03:55;;;;;;;;;;;;;;;5.59;38.03;100746.41;5073857;28;20346;-60
2023/12/13 06:06:21;;;;;;;;;;;;;;;5.59;38.76;100749.06;5073572;28;19973;-61
2023/12/13 06:08:46;;;;;;;;;;;;;;;5.60;37.01;100753.41;5073469;28;20376;-61
2023/12/13 06:11:14;;;;;;;;;;;;;;;5.60;37.25;100754.25;5074062;28;19959;-61
2023/12/13 06:13:39;;;;;;;;;;;;;;;5.60;37.56;100761.41;5073081;28;20015;-62
2023/12/13 06:16:06;;;;;;;;;;;;;;;5.57;37.66;100765.22;5073293;28;19913;-61
2023/12/13 06:18:31;;;;;;;;;;;;;;;5.56;37.83;100750.22;5076021;28;19920;-61
2023/12/13 06:20:57;;;;;;;;;;;;;;;5.60;39.83;100754.25;5093560;28;19919;-60
2023/12/13 06:23:23;;;;;;;;;;;;;;;5.66;38.92;100757.28;5093587;28;19912;-61
2023/12/13 06:25:48;;;;;;;;;;;;;;;5.70;38.03;100756.84;5093567;28;19912;-61
2023/12/13 06:28:14;;;;;;;;;;;;;;;5.71;38.61;100763.00;5093522;28;20391;-61
2023/12/13 06:30:39;;;;;;;;;;;;;;;5.66;38.67;100763.44;5094162;28;19920;-60
2023/12/13 06:33:05;;;;;;;;;;;;;;;5.61;37.33;100761.25;5093389;28;20365;-61
2023/12/13 06:35:30;;;;;;;;;;;;;;;5.58;38.64;100768.72;5081433;28;19952;-62
2023/12/13 06:37:55;;;;;;;;;;;;;;;5.59;39.22;100759.72;5073595;28;20269;-61
2023/12/13 06:40:21;;;;;;;;;;;;;;;5.62;38.94;100770.91;5073011;28;19916;-61
2023/12/13 06:42:46;;;;;;;;;;;;;;;5.60;37.21;100770.22;5072759;28;19913;-61
2023/12/13 06:45:11;;;;;;;;;;;;;;;5.61;38.51;100774.56;5073095;28;19912;-62
2023/12/13 06:47:37;;;;;;;;;;;;;;;5.62;39.19;100778.91;5072996;28;19921;-61
2023/12/13 06:50:02;;;;;;;;;;;;;;;5.60;39.16;100778.22;5072922;28;20384;-61
2023/12/13 06:52:27;;;;;;;;;;;;;;;5.60;39.42;100783.53;5092207;28;20395;-61
2023/12/13 06:54:53;;;;;;;;;;;;;;;5.59;38.17;100792.53;5082854;28;19948;-62
2023/12/13 06:57:18;;;;;;;;;;;;;;;5.56;39.64;100798.16;5073105;28;19977;-62
2023/12/13 06:59:43;;;;;;;;;;;;;;;5.55;38.65;100796.50;5076832;28;19966;-61
2023/12/13 07:02:09;;;;;;;;;;;;;;;5.57;38.92;100797.19;5076746;28;19994;-63
2023/12/13 07:04:35;;;;;;;;;;;;;;;5.57;38.46;100789.19;5076928;28;20286;-61
2023/12/13 07:07:01;;;;;;;;;;;;;;;5.55;38.41;100796.50;5076533;28;19912;-59
2023/12/13 07:09:26;;;;;;;;;;;;;;;5.53;37.95;100792.31;5087295;28;19912;-60
2023/12/13 07:11:51;;;;;;;;;;;;;;;5.48;38.12;100802.56;5096964;28;20295;-61
2023/12/13 07:14:17;;;;;;;;;;;;;;;5.46;39.57;100808.09;5097379;28;20006;-61
2023/12/13 07:16:45;;;;;;;;;;;;;;;5.46;38.69;100808.09;5097079;28;20342;-61
2023/12/13 07:19:11;;;;;;;;;;;;;;;5.49;38.94;100812.25;5097463;28;19916;-60
2023/12/13 07:21:37;;;;;;;;;;;;;;;5.51;39.57;100808.44;5095993;28;19919;-60
2023/12/13 07:24:03;;;;;;;;;;;;;;;5.51;40.08;100802.28;5097194;28;20310;-61
2023/12/13 07:26:29;;;;;;;;;;;;;;;5.50;39.95;100806.78;5095548;28;20136;-60
2023/12/13 07:28:55;;;;;;;;;;;;;;;5.51;40.17;100803.09;5096490;28;19958;-60
2023/12/13 07:31:20;;;;;;;;;;;;;;;5.55;38.71;100808.97;5088288;28;19999;-61
2023/12/13 07:33:46;;;;;;;;;;;;;;;5.55;40.55;100808.97;5076292;28;20615;-61
2023/12/13 07:36:12;;;;;;;;;;;;;;;5.56;39.66;100810.66;5076097;28;20388;-61
2023/12/13 07:38:38;;;;;;;;;;;;;;;5.55;40.13;100807.16;5076121;28;19917;-60
2023/12/13 07:41:03;;;;;;;;;;;;;;;5.54;37.89;100810.81;5075845;28;19965;-61
2023/12/13 07:43:29;;;;;;;;;;;;;;;5.53;39.14;100816.28;5075471;28;20016;-61
2023/12/13 07:45:55;;;;;;;;;;;;;;;5.54;40.34;100815.31;5075771;28;19912;-61
2023/12/13 07:48:20;;;;;;;;;;;;;;;5.54;40.03;100820.63;5075588;28;19912;-61
2023/12/13 07:50:46;;;;;;;;;;;;;;;5.51;39.75;100816.44;5076159;28;19919;-61
2023/12/13 07:53:12;;;;;;;;;;;;;;;5.49;38.41;100813.09;5076166;28;19913;-61
2023/12/13 07:55:38;;;;;;;;;;;;;;;5.51;38.83;100815.59;5075044;28;19916;-61
2023/12/13 07:58:03;;;;;;;;;;;;;;;5.48;40.16;100821.22;5075177;28;20594;-59
2023/12/13 08:00:29;;;;;;;;;;;;;;;5.47;39.52;100814.22;5075208;28;20388;-62
2023/12/13 08:02:54;;;;;;;;;;;;;;;5.45;39.50;100821.53;5062219;28;19913;-62
2023/12/13 08:05:20;;;;;;;;;;;;;;;5.38;37.69;100832.78;5075935;28;19954;-63
2023/12/13 08:07:46;;;;;;;;;;;;;;;5.42;39.35;100828.84;5075718;28;20285;-62
2023/12/13 08:10:11;;;;;;;;;;;;;;;5.46;39.07;100836.53;5073571;28;19920;-63
2023/12/13 08:12:36;;;;;;;;;;;;;;;5.46;38.97;100826.72;5074282;28;19974;-63
2023/12/13 08:15:05;;;;;;;;;;;;;;;5.45;39.75;100833.03;5074073;28;20322;-63
2023/12/13 08:17:30;;;;;;;;;;;;;;;5.40;40.54;100837.97;5074191;28;19912;-63
2023/12/13 08:19:56;;;;;;;;;;;;;;;5.45;39.69;100838.34;5073876;28;20269;-62
2023/12/13 08:22:21;;;;;;;;;;;;;;;5.45;39.80;100825.03;5074305;28;19988;-63
2023/12/13 08:24:46;;;;;;;;;;;;;;;5.48;39.68;100838.06;5075020;28;19912;-63
2023/12/13 08:27:12;;;;;;;;;;;;;;;5.52;39.72;100836.75;5075045;28;19917;-62
2023/12/13 08:29:37;;;;;;;;;;;;;;;5.52;39.10;100834.09;5075529;28;20030;-61
2023/12/13 08:32:02;;;;;;;;;;;;;;;5.52;39.54;100841.25;5074865;28;20353;-62
2023/12/13 08:34:28;;;;;;;;;;;;;;;5.54;39.18;100839.28;5075010;28;19912;-62
2023/12/13 08:36:53;;;;;;;;;;;;;;;5.55;40.45;100835.63;5072740;28;19961;-62
2023/12/13 08:39:21;;;;;;;;;;;;;;;5.55;39.29;100830.28;5074482;28;20369;-62
2023/12/13 08:41:47;;;;;;;;;;;;;;;5.57;39.68;100833.63;5074771;28;19920;-62
2023/12/13 08:44:12;;;;;;;;;;;;;;;5.56;39.58;100842.63;5073228;28;19913;-62
2023/12/13 08:46:38;;;;;;;;;;;;;;;5.58;39.43;100845.97;5074867;28;19913;-62
2023/12/13 08:49:04;;;;;;;;;;;;;;;5.59;40.08;100842.31;5081685;28;19924;-63
2023/12/13 08:51:29;;;;;;;;;;;;;;;5.59;40.03;100850.28;5095034;28;19978;-62
2023/12/13 08:53:55;;;;;;;;;;;;;;;5.64;40.59;100850.69;5092851;28;19919;-63
2023/12/13 08:56:21;;;;;;;;;;;;;;;5.63;39.02;100849.84;5074182;28;20003;-62
2023/12/13 08:58:46;;;;;;;;;;;;;;;5.63;39.03;100847.19;5073062;28;20048;-63
2023/12/13 09:01:12;;;;;;;;;;;;;;;5.67;39.33;100847.72;5074687;28;19919;-63
2023/12/13 09:03:37;;;;;;;;;;;;;;;5.68;39.67;100851.22;5054333;28;19916;-62
2023/12/13 09:06:03;;;;;;;;;;;;;;;5.71;39.11;100841.09;5054493;28;19913;-63
2023/12/13 09:08:28;;;;;;;;;;;;;;;5.72;38.85;100847.25;5054511;28;20012;-63
2023/12/13 09:10:55;;;;;;;;;;;;;;;5.69;38.62;100852.91;5054504;28;20388;-63
2023/12/13 09:13:20;;;;;;;;;;;;;;;5.69;38.56;100850.25;5052907;28;19993;-63
2023/12/13 09:15:46;;;;;;;;;;;;;;;5.70;38.84;100846.56;5066444;28;20025;-62
2023/12/13 09:18:11;;;;;;;;;;;;;;;5.70;38.01;100846.56;5074199;28;19920;-62
2023/12/13 09:20:36;;;;;;;;;;;;;;;5.69;39.32;100840.41;5073828;28;19920;-62
2023/12/13 09:23:02;;;;;;;;;;;;;;;5.69;38.05;100844.91;5073734;28;20057;-62
2023/12/13 09:25:27;;;;;;;;;;;;;;;5.69;38.81;100848.41;5074150;28;19924;-63
2023/12/13 09:27:52;;;;;;;;;;;;;;;5.74;40.96;100843.47;5072907;28;19920;-63
2023/12/13 09:30:18;;;;;;;;;;;;;;;5.76;38.83;100853.97;5074140;28;20029;-62
2023/12/13 09:32:43;;;;;;;;;;;;;;;5.77;39.17;100845.81;5074288;28;19913;-63
2023/12/13 09:35:09;;;;;;;;;;;;;;;5.77;39.80;100848.47;5073966;28;19924;-64
2023/12/13 09:37:35;;;;;;;;;;;;;;;5.80;39.14;100847.34;5074054;28;19920;-64
2023/12/13 09:40:00;;;;;;;;;;;;;;;5.79;38.15;100853.66;5089085;28;19951;-63
2023/12/13 09:42:26;;;;;;;;;;;;;;;5.79;38.13;100846.53;5094203;28;20267;-63
2023/12/13 09:44:52;;;;;;;;;;;;;;;5.81;38.84;100846.34;5094312;28;19911;-64
2023/12/13 09:47:19;;;;;;;;;;;;;;;5.85;38.75;100845.06;5094359;28;19916;-64
2023/12/13 09:49:47;;;;;;;;;;;;;;;5.88;39.68;100855.41;5094306;28;19912;-63
2023/12/13 09:52:16;;;;;;;;;;;;;;;5.90;39.06;100850.75;5080524;28;20002;-63
2023/12/13 09:54:44;;;;;;;;;;;;;;;5.89;39.80;100859.75;5072896;28;19912;-64
2023/12/13 09:57:09;;;;;;;;;;;;;;;5.92;40.26;100864.75;5073605;28;19912;-63
2023/12/13 09:59:35;;;;;;;;;;;;;;;5.93;37.81;100861.13;5072363;28;19917;-62
2023/12/13 10:02:01;;;;;;;;;;;;;;;5.97;39.93;100867.84;5072098;28;19955;-63
2023/12/13 10:04:27;;;;;;;;;;;;;;;5.97;39.32;100870.50;5073612;28;20361;-63
2023/12/13 10:06:52;;;;;;;;;;;;;;;6.00;38.19;100867.53;5072463;28;19916;-63
2023/12/13 10:09:18;;;;;;;;;;;;;;;5.99;38.55;100868.53;5073402;28;19970;-62
2023/12/13 10:11:45;;;;;;;;;;;;;;;6.01;39.97;100869.19;5073659;28;20417;-63
2023/12/13 10:14:10;;;;;;;;;;;;;;;6.02;38.97;100867.41;5073348;28;19919;-63
2023/12/13 10:16:39;;;;;;;;;;;;;;;6.00;37.99;100867.53;5073638;28;20261;-63
2023/12/13 10:19:06;;;;;;;;;;;;;;;6.00;39.49;100872.06;5072930;28;19927;-63
2023/12/13 10:21:34;;;;;;;;;;;;;;;6.02;38.34;100872.72;5073244;28;19913;-63
2023/12/13 10:24:00;;;;;;;;;;;;;;;5.98;37.49;100869.53;5073178;28;19962;-63
2023/12/13 10:26:25;;;;;;;;;;;;;;;5.99;38.53;100870.34;5073124;28;19920;-63
2023/12/13 10:28:51;;;;;;;;;;;;;;;5.99;38.16;100873.84;5077956;28;19955;-64
2023/12/13 10:31:20;;;;;;;;;;;;;;;6.01;38.51;100871.88;5093209;28;19912;-63
2023/12/13 10:33:45;;;;;;;;;;;;;;;6.05;39.06;100871.56;5092921;28;19912;-63
2023/12/13 10:36:11;;;;;;;;;;;;;;;6.03;38.71;100869.06;5080434;28;20342;-62
2023/12/13 10:38:38;;;;;;;;;;;;;;;6.06;38.77;100874.09;5073273;28;19916;-62
2023/12/13 10:41:06;;;;;;;;;;;;;;;6.08;37.72;100873.94;5073195;28;19912;-63
2023/12/13 10:43:34;;;;;;;;;;;;;;;6.06;37.80;100876.75;5073304;28;19912;-63
2023/12/13 10:46:00;;;;;;;;;;;;;;;6.07;38.28;100881.09;5072866;28;19916;-63
2023/12/13 10:48:33;;;;;;;;;;;;;;;6.10;38.85;100879.97;5072526;28;20004;-63
2023/12/13 10:50:59;;;;;;;;;;;;;;;6.13;37.75;100879.63;5079919;28;19912;-63
2023/12/13 10:53:25;;;;;;;;;;;;;;;6.10;37.93;100875.44;5093124;28;20003;-63
2023/12/13 10:55:51;;;;;;;;;;;;;;;6.11;37.37;100878.94;5075073;28;20031;-62
2023/12/13 10:58:18;;;;;;;;;;;;;;;6.09;38.86;100880.94;5071690;28;19912;-63
2023/12/13 11:00:43;;;;;;;;;;;;;;;6.12;37.62;100877.97;5071671;28;20293;-63
2023/12/13 11:03:11;;;;;;;;;;;;;;;6.12;38.45;100877.97;5072558;28;19913;-63
2023/12/13 11:05:37;;;;;;;;;;;;;;;6.14;38.84;100886.66;5073070;28;19916;-63
2023/12/13 11:08:12;;;;;;;;;;;;;;;6.13;38.11;100883.16;5073061;28;19918;-63
2023/12/13 11:10:37;;;;;;;;;;;;;;;6.14;36.84;100889.31;5072819;28;19921;-63
2023/12/13 11:13:03;;;;;;;;;;;;;;;6.15;38.44;100894.50;5072892;28;19921;-63
2023/12/13 11:15:28;;;;;;;;;;;;;;;6.17;36.91;100883.69;5073089;28;19913;-63
2023/12/13 11:17:55;;;;;;;;;;;;;;;6.17;38.01;100881.84;5072640;28;20322;-63
2023/12/13 11:20:21;;;;;;;;;;;;;;;6.23;38.44;100885.72;5090833;28;20382;-63
2023/12/13 11:22:48;;;;;;;;;;;;;;;6.20;38.20;100888.69;5092956;28;19912;-63
2023/12/13 11:25:14;;;;;;;;;;;;;;;6.20;38.32;100891.34;5093320;28;19919;-63
2023/12/13 11:28:00;;;;;;;;;;;;;;;6.22;37.34;100892.03;5093155;28;19916;-63
2023/12/13 11:30:25;;;;;;;;;;;;;;;6.25;38.32;100893.56;5091210;28;19912;-63
2023/12/13 11:32:51;;;;;;;;;;;;;;;6.29;38.01;100889.59;5092827;28;20383;-63
2023/12/13 11:35:18;;;;;;;;;;;;;;;6.21;36.36;100890.38;5087232;28;19913;-63
2023/12/13 11:37:50;;;;;;;;;;;;;;;6.23;38.00;100887.56;5073098;28;19999;-63
2023/12/13 11:40:16;;;;;;;;;;;;;;;6.25;38.47;100896.25;5072706;28;20018;-62
2023/12/13 11:42:41;;;;;;;;;;;;;;;6.25;38.92;100902.41;5072433;28;20444;-63
2023/12/13 11:45:07;;;;;;;;;;;;;;;6.28;38.62;100901.25;5073648;28;19916;-62
2023/12/13 11:47:34;;;;;;;;;;;;;;;6.25;36.37;100902.41;5076373;28;19955;-63
2023/12/13 11:49:59;;;;;;;;;;;;;;;6.27;37.84;100900.41;5076104;28;19916;-62
2023/12/13 11:52:25;;;;;;;;;;;;;;;6.27;37.40;100897.75;5095297;28;19962;-63
2023/12/13 11:54:50;;;;;;;;;;;;;;;6.31;39.54;100901.78;5086350;28;19965;-62
2023/12/13 11:57:18;;;;;;;;;;;;;;;6.34;37.87;100904.16;5075568;28;20012;-62
2023/12/13 11:59:45;;;;;;;;;;;;;;;6.33;37.32;100905.16;5076143;28;19955;-62
2023/12/13 12:02:10;;;;;;;;;;;;;;;6.33;37.61;100898.97;5075536;28;20416;-62
2023/12/13 12:04:36;;;;;;;;;;;;;;;6.34;38.63;100904.16;5075592;28;19919;-62
2023/12/13 12:07:04;;;;;;;;;;;;;;;6.36;37.56;100901.31;5075843;28;19920;-63
2023/12/13 12:09:29;;;;;;;;;;;;;;;6.27;36.68;100905.75;5086194;28;20019;-62
2023/12/13 12:11:57;;;;;;;;;;;;;;;6.29;37.70;100908.28;5096103;28;19996;-62
2023/12/13 12:14:27;;;;;;;;;;;;;;;6.29;37.95;100911.75;5091691;28;19954;-62
2023/12/13 12:16:52;;;;;;;;;;;;;;;6.30;37.95;100917.97;5075530;28;20369;-62
2023/12/13 12:19:17;;;;;;;;;;;;;;;6.29;38.47;100914.44;5075544;28;19916;-60
2023/12/13 12:21:44;;;;;;;;;;;;;;;6.29;37.00;100913.59;5075503;28;19987;-63
2023/12/13 12:24:10;;;;;;;;;;;;;;;6.29;38.44;100911.75;5075727;28;20456;-62
2023/12/13 12:26:35;;;;;;;;;;;;;;;6.32;38.11;100918.63;5075181;28;20381;-63
2023/12/13 12:29:01;;;;;;;;;;;;;;;6.30;37.84;100913.44;5075127;28;19912;-62
2023/12/13 12:31:26;;;;;;;;;;;;;;;6.28;39.25;100919.91;5075336;28;19923;-62
2023/12/13 12:33:55;;;;;;;;;;;;;;;6.26;38.88;100917.44;5075213;28;19912;-62
2023/12/13 12:36:21;;;;;;;;;;;;;;;6.27;38.63;100924.41;5074904;28;19919;-62
2023/12/13 12:38:47;;;;;;;;;;;;;;;6.27;37.69;100926.25;5074976;28;19916;-62
2023/12/13 12:41:12;;;;;;;;;;;;;;;6.26;37.79;100921.91;5074686;28;19967;-63